Time;durP1;ratioP1;P1;durP2;ratioP2;P2;SDS_P1;SDS_P2;PMS_P1;PMS_P2;Temp;Humidity;BMP_temperature;BMP_pressure;BME280_temperature;BME280_humidity;BME280_pressure;Samples;Min_cycle;Max_cycle;Signal;HPM_P1;HPM_P2
2023/11/06 00:01:24;;;;;;;8.25;4.57;;;;;;;10.02;100.00;98067.38;4961375;28;20089;-76
2023/11/06 00:04:09;;;;;;;8.95;3.63;;;;;;;10.06;100.00;98069.38;4961336;28;20189;-77
2023/11/06 00:06:53;;;;;;;10.07;5.30;;;;;;;10.11;100.00;98072.19;4957629;28;20053;-76
2023/11/06 00:09:18;;;;;;;10.63;3.30;;;;;;;10.04;100.00;98074.09;4966332;28;20031;-77
2023/11/06 00:11:44;;;;;;;13.07;3.53;;;;;;;10.01;100.00;98081.75;4966269;28;20385;-77
2023/11/06 00:14:09;;;;;;;13.35;3.10;;;;;;;9.99;100.00;98081.16;4966230;28;20629;-77
2023/11/06 00:16:35;;;;;;;9.53;2.90;;;;;;;10.00;100.00;98077.47;4965874;28;20047;-77
2023/11/06 00:19:01;;;;;;;;;;;;;;;10.04;100.00;98087.44;4982419;28;20077;-77
2023/11/06 00:21:26;;;;;;;10.75;2.45;;;;;;;10.06;100.00;98084.56;4949909;28;19993;-77
2023/11/06 00:23:51;;;;;;;7.93;3.00;;;;;;;10.03;100.00;98088.47;4966393;28;20029;-77
2023/11/06 00:26:17;;;;;;;5.13;1.80;;;;;;;9.91;100.00;98077.75;4966276;28;20043;-76
2023/11/06 00:28:51;;;;;;;10.85;2.58;;;;;;;9.91;100.00;98075.09;4974463;28;20471;-77
2023/11/06 00:31:16;;;;;;;6.80;1.90;;;;;;;9.96;100.00;98102.94;4966620;28;20054;-77
2023/11/06 00:33:42;;;;;;;4.03;1.63;;;;;;;10.04;100.00;98107.94;4966592;28;20502;-77
2023/11/06 00:36:23;;;;;;;5.90;2.25;;;;;;;10.01;100.00;98106.53;4966494;28;20130;-77
2023/11/06 00:38:48;;;;;;;10.63;1.77;;;;;;;9.90;100.00;98107.28;4949727;28;20034;-76
2023/11/06 00:41:15;;;;;;;6.30;2.58;;;;;;;9.91;100.00;98124.91;4966757;28;20065;-77
2023/11/06 00:43:40;;;;;;;9.07;1.92;;;;;;;9.90;100.00;98116.13;4949193;28;20043;-77
2023/11/06 00:46:06;;;;;;;6.97;1.73;;;;;;;9.98;100.00;98130.19;4967826;28;20026;-77
2023/11/06 00:48:32;;;;;;;8.88;1.70;;;;;;;10.02;100.00;98150.00;4966331;28;20681;-77
2023/11/06 00:50:58;;;;;;;6.60;1.67;;;;;;;10.01;100.00;98135.88;4950038;28;20081;-77
2023/11/06 00:53:24;;;;;;;12.37;2.03;;;;;;;10.10;100.00;98155.06;4966249;28;20039;-77
2023/11/06 00:55:50;;;;;;;6.45;1.52;;;;;;;9.97;100.00;98148.00;4965910;28;20270;-77
2023/11/06 00:58:16;;;;;;;11.43;1.70;;;;;;;10.00;100.00;98154.78;4965516;28;20066;-77
2023/11/06 01:00:42;;;;;;;5.82;1.27;;;;;;;10.04;100.00;98162.06;4966695;28;20054;-77
2023/11/06 01:03:08;;;;;;;5.20;1.30;;;;;;;9.91;100.00;98163.03;4982173;28;20042;-77
2023/11/06 01:05:33;;;;;;;4.33;1.70;;;;;;;10.01;100.00;98172.38;4965038;28;20084;-76
2023/11/06 01:08:01;;;;;;;4.80;1.55;;;;;;;9.95;100.00;98179.41;4981191;28;20081;-76
2023/11/06 01:10:28;;;;;;;6.10;2.17;;;;;;;9.93;100.00;98170.81;4964841;28;20061;-77
2023/11/06 01:12:54;;;;;;;7.82;2.17;;;;;;;9.92;100.00;98190.50;4964025;28;20038;-77
2023/11/06 01:15:19;;;;;;;5.53;1.63;;;;;;;9.89;100.00;98197.09;4981114;28;20479;-77
2023/11/06 01:17:45;;;;;;;6.60;1.37;;;;;;;9.94;100.00;98221.22;4964461;28;20030;-77
2023/11/06 01:20:10;;;;;;;14.37;1.53;;;;;;;9.90;100.00;98213.88;4964533;28;20705;-77
2023/11/06 01:22:36;;;;;;;12.25;1.38;;;;;;;9.81;100.00;98217.88;4966753;28;20035;-77
2023/11/06 01:25:02;;;;;;;13.10;2.40;;;;;;;9.84;100.00;98236.91;4965047;28;20035;-78
2023/11/06 01:27:27;;;;;;;6.68;1.85;;;;;;;9.86;100.00;98234.84;4945459;28;20039;-77
2023/11/06 01:29:52;;;;;;;8.57;1.20;;;;;;;9.80;100.00;98238.38;4964981;28;20038;-77
2023/11/06 01:32:20;;;;;;;9.20;1.53;;;;;;;9.80;100.00;98238.38;4964850;28;20035;-78
2023/11/06 01:34:46;;;;;;;5.95;1.00;;;;;;;9.72;100.00;98244.81;4948247;28;20053;-79
2023/11/06 01:37:11;;;;;;;7.65;1.60;;;;;;;9.82;100.00;98270.16;4964700;28;20085;-77
2023/11/06 01:39:37;;;;;;;5.57;2.27;;;;;;;9.79;100.00;98267.94;4975068;28;20122;-78
2023/11/06 01:42:02;;;;;;;6.00;1.60;;;;;;;9.72;100.00;98266.13;4965032;28;20046;-79
2023/11/06 01:44:28;;;;;;;8.18;1.80;;;;;;;9.68;100.00;98264.09;4965775;28;20031;-78
2023/11/06 01:46:54;;;;;;;6.40;2.50;;;;;;;9.77;100.00;98288.63;4966213;28;20050;-79
2023/11/06 01:49:20;;;;;;;6.45;2.03;;;;;;;9.73;100.00;98281.06;4966907;28;20026;-80
2023/11/06 01:51:47;;;;;;;11.88;2.20;;;;;;;9.77;100.00;98285.97;4966007;28;20066;-79
2023/11/06 01:54:13;;;;;;;6.97;1.65;;;;;;;9.54;100.00;98283.88;4965663;28;20069;-77
2023/11/06 01:56:38;;;;;;;11.43;1.58;;;;;;;9.62;100.00;98289.78;4967137;28;20068;-78
2023/11/06 01:59:04;;;;;;;14.43;2.45;;;;;;;9.68;100.00;98302.22;4963290;28;20073;-78
2023/11/06 02:01:35;;;;;;;14.30;2.53;;;;;;;9.59;100.00;98292.84;4962463;28;20512;-77
2023/11/06 02:04:01;;;;;;;6.47;2.63;;;;;;;9.54;100.00;98299.88;4981852;28;20369;-78
2023/11/06 02:06:30;;;;;;;13.43;3.95;;;;;;;9.54;100.00;98306.00;4965046;28;20895;-79
2023/11/06 02:08:58;;;;;;;8.90;2.75;;;;;;;9.48;100.00;98328.16;4964662;28;20035;-78
2023/11/06 02:11:23;;;;;;;10.02;2.80;;;;;;;9.45;100.00;98317.94;4948531;28;20041;-78
2023/11/06 02:13:49;;;;;;;10.52;4.18;;;;;;;9.48;100.00;98326.34;4962619;28;20031;-78
2023/11/06 02:16:14;;;;;;;9.53;3.47;;;;;;;9.52;100.00;98319.53;4964685;28;20031;-78
2023/11/06 02:18:39;;;;;;;10.60;3.93;;;;;;;9.52;100.00;98314.19;4964102;28;20130;-79
2023/11/06 02:21:06;;;;;;;14.47;3.63;;;;;;;9.36;100.00;98303.25;4964774;28;20038;-78
2023/11/06 02:23:31;;;;;;;17.08;4.45;;;;;;;9.44;100.00;98314.47;4980073;28;20092;-78
2023/11/06 02:25:57;;;;;;;21.60;5.60;;;;;;;9.49;100.00;98317.31;4964754;28;20471;-76
2023/11/06 02:28:23;;;;;;;18.73;4.20;;;;;;;9.50;100.00;98313.63;4947491;28;20046;-79
2023/11/06 02:30:52;;;;;;;16.33;3.38;;;;;;;9.47;100.00;98323.88;4963054;28;20087;-79
2023/11/06 02:33:21;;;;;;;14.63;3.20;;;;;;;9.46;100.00;98311.59;4964291;28;20042;-78
2023/11/06 02:35:47;;;;;;;17.00;3.83;;;;;;;9.38;100.00;98317.97;4948035;28;20038;-80
2023/11/06 02:38:13;;;;;;;15.52;4.47;;;;;;;9.38;100.00;98303.84;4963704;28;20035;-80
2023/11/06 02:40:40;;;;;;;20.52;6.05;;;;;;;9.38;100.00;98314.50;4957643;28;20441;-80
2023/11/06 02:43:05;;;;;;;11.30;2.72;;;;;;;9.28;100.00;98307.81;4898996;28;20043;-80
2023/11/06 02:45:31;;;;;;;18.60;4.50;;;;;;;9.45;100.00;98324.09;4956806;28;20073;-79
2023/11/06 02:47:56;;;;;;;14.05;3.38;;;;;;;9.37;100.00;98326.22;4948012;28;20043;-79
2023/11/06 02:50:21;;;;;;;21.23;4.23;;;;;;;9.39;100.00;98321.47;4967298;28;20033;-80
2023/11/06 02:52:48;;;;;;;16.60;5.47;;;;;;;9.37;100.00;98310.22;4894872;28;20112;-78
2023/11/06 02:55:13;;;;;;;;;;;;;;;9.39;100.00;98313.47;4926146;28;20435;-79
2023/11/06 02:57:39;;;;;;;10.48;3.05;;;;;;;9.36;100.00;98324.56;4919462;28;19915;-77
2023/11/06 03:00:06;;;;;;;10.83;2.40;;;;;;;9.41;100.00;98327.38;4963038;28;20043;-77
2023/11/06 03:02:35;;;;;;;12.77;2.83;;;;;;;9.44;100.00;98333.13;4948907;28;20030;-76
2023/11/06 03:05:06;;;;;;;17.50;2.97;;;;;;;9.39;100.00;98334.78;4964817;28;20114;-78
2023/11/06 03:07:33;;;;;;;14.93;2.90;;;;;;;9.42;100.00;98334.38;4964096;28;20888;-79
2023/11/06 03:09:58;;;;;;;11.40;2.58;;;;;;;9.38;100.00;98335.81;4963841;28;20031;-79
2023/11/06 03:12:24;;;;;;;13.45;3.70;;;;;;;9.40;100.00;98331.91;4948133;28;20125;-80
2023/11/06 03:14:49;;;;;;;16.42;2.80;;;;;;;9.41;100.00;98341.53;4987198;28;21478;-80
2023/11/06 03:17:15;;;;;;;12.33;2.63;;;;;;;9.48;100.00;98360.97;4964064;28;20027;-80
2023/11/06 03:19:40;;;;;;;9.13;2.53;;;;;;;9.43;100.00;98357.28;4963962;28;20046;-80
2023/11/06 03:22:06;;;;;;;6.90;2.33;;;;;;;9.37;100.00;98328.88;4963953;28;20034;-79
2023/11/06 03:24:32;;;;;;;10.02;2.42;;;;;;;9.34;100.00;98347.91;4964279;28;20026;-80
2023/11/06 03:26:57;;;;;;;12.27;3.03;;;;;;;9.38;100.00;98371.25;4946224;28;20041;-78
2023/11/06 03:29:23;;;;;;;17.37;3.23;;;;;;;9.33;100.00;98372.91;4976292;28;20042;-79
2023/11/06 03:31:48;;;;;;;10.23;3.63;;;;;;;9.30;100.00;98387.47;4946430;28;20027;-79
2023/11/06 03:34:15;;;;;;;15.77;4.93;;;;;;;9.27;100.00;98396.72;4947778;28;20126;-79
2023/11/06 03:36:45;;;;;;;15.60;5.20;;;;;;;9.36;100.00;98394.59;4966384;28;20043;-79
2023/11/06 03:39:11;;;;;;;7.55;2.70;;;;;;;9.42;100.00;98407.09;4968404;28;20063;-80
2023/11/06 03:41:37;;;;;;;;;;;;;;;9.35;100.00;98413.47;4967330;28;20015;-79
2023/11/06 03:44:02;;;;;;;14.88;4.22;;;;;;;9.41;100.00;98418.78;4984107;28;20337;-79
2023/11/06 03:46:27;;;;;;;9.30;3.00;;;;;;;9.30;100.00;98390.94;4968182;28;20077;-79
2023/11/06 03:48:53;;;;;;;6.13;2.90;;;;;;;9.38;100.00;98434.34;4967596;28;20591;-79
2023/11/06 03:51:19;;;;;;;13.65;3.50;;;;;;;9.30;100.00;98441.53;4951359;28;20027;-79
2023/11/06 03:53:45;;;;;;;10.30;3.50;;;;;;;9.27;100.00;98439.31;4952043;28;20130;-79
2023/11/06 03:56:10;;;;;;;7.82;3.03;;;;;;;9.20;100.00;98454.50;4965005;28;20043;-78
2023/11/06 03:58:36;;;;;;;4.75;2.42;;;;;;;9.19;100.00;98450.19;4966038;28;20046;-79
2023/11/06 04:01:02;;;;;;;13.57;4.13;;;;;;;9.20;100.00;98454.50;4986173;28;20277;-78
2023/11/06 04:03:28;;;;;;;6.57;2.72;;;;;;;9.19;100.00;98468.00;4949404;28;20027;-78
2023/11/06 04:05:54;;;;;;;8.82;3.35;;;;;;;9.17;100.00;98470.06;4952471;28;20039;-79
2023/11/06 04:08:19;;;;;;;8.25;4.32;;;;;;;9.22;100.00;98488.88;4968636;28;20079;-78
2023/11/06 04:10:44;;;;;;;17.30;3.93;;;;;;;9.19;100.00;98494.63;4952504;28;20442;-79
2023/11/06 04:13:10;;;;;;;14.93;3.30;;;;;;;9.20;100.00;98491.75;4968762;28;20038;-78
2023/11/06 04:15:35;;;;;;;15.57;3.90;;;;;;;9.17;100.00;98512.66;4982895;28;20030;-78
2023/11/06 04:18:01;;;;;;;13.37;3.70;;;;;;;9.21;100.00;98506.69;4982913;28;20035;-78
2023/11/06 04:20:26;;;;;;;9.75;3.70;;;;;;;9.09;100.00;98505.72;4968036;28;20042;-79
2023/11/06 04:22:52;;;;;;;9.75;3.88;;;;;;;9.08;100.00;98530.66;4967847;28;20034;-78
2023/11/06 04:25:17;;;;;;;15.50;5.10;;;;;;;9.13;100.00;98538.03;4984343;28;20088;-79
2023/11/06 04:27:42;;;;;;;14.80;5.70;;;;;;;9.08;100.00;98530.66;4950256;28;20031;-78
2023/11/06 04:30:08;;;;;;;6.13;4.20;;;;;;;9.06;100.00;98528.25;4968647;28;20038;-79
2023/11/06 04:32:34;;;;;;;15.40;4.30;;;;;;;9.13;100.00;98549.53;4980120;28;20026;-78
2023/11/06 04:34:59;;;;;;;21.73;4.37;;;;;;;9.12;100.00;98550.53;4968739;28;20038;-78
2023/11/06 04:37:25;;;;;;;10.77;4.73;;;;;;;9.10;100.00;98544.59;4980543;28;20113;-78
2023/11/06 04:39:50;;;;;;;14.60;5.15;;;;;;;9.14;100.00;98556.47;4969528;28;20126;-78
2023/11/06 04:42:16;;;;;;;9.90;4.37;;;;;;;8.95;100.00;98547.50;4969803;28;20035;-77
2023/11/06 04:44:41;;;;;;;11.00;4.50;;;;;;;9.11;100.00;98521.44;4970095;28;20031;-78
2023/11/06 04:47:08;;;;;;;11.23;5.20;;;;;;;9.14;100.00;98556.47;4951687;28;20043;-80
2023/11/06 04:49:34;;;;;;;11.20;4.93;;;;;;;9.06;100.00;98559.34;4987246;28;20034;-78
2023/11/06 04:51:59;;;;;;;15.82;5.75;;;;;;;9.25;100.00;98584.34;4970993;28;20039;-78
2023/11/06 04:54:25;;;;;;;13.20;5.40;;;;;;;9.02;100.00;98572.25;4971349;28;20030;-77
2023/11/06 04:56:50;;;;;;;12.85;5.38;;;;;;;9.08;100.00;98578.59;4955329;28;20045;-79
2023/11/06 04:59:16;;;;;;;16.53;6.00;;;;;;;9.13;100.00;98591.28;4973549;28;20043;-77
2023/11/06 05:01:42;;;;;;;10.90;5.43;;;;;;;9.02;100.00;98580.25;4972867;28;20100;-79
2023/11/06 05:04:07;;;;;;;11.40;4.97;;;;;;;8.98;100.00;98583.50;4973212;28;20038;-80
2023/11/06 05:06:33;;;;;;;13.95;4.90;;;;;;;9.02;100.00;98598.06;4973847;28;20039;-78
2023/11/06 05:09:00;;;;;;;18.33;5.70;;;;;;;9.05;100.00;98600.31;4971503;28;20038;-79
2023/11/06 05:11:26;;;;;;;16.35;6.70;;;;;;;9.12;100.00;98625.06;4972080;28;20084;-79
2023/11/06 05:13:54;;;;;;;16.15;6.35;;;;;;;9.01;100.00;98629.19;4968075;28;20042;-78
2023/11/06 05:16:20;;;;;;;16.38;6.47;;;;;;;9.10;100.00;98643.09;4964971;28;20499;-80
2023/11/06 05:18:46;;;;;;;24.60;6.90;;;;;;;8.98;100.00;98639.41;4965854;28;20113;-79
2023/11/06 05:21:11;;;;;;;12.40;6.32;;;;;;;8.95;100.00;98645.16;4968576;28;20077;-80
2023/11/06 05:23:37;;;;;;;15.82;6.65;;;;;;;8.92;100.00;98638.38;4969418;28;20038;-80
2023/11/06 05:26:02;;;;;;;21.90;8.03;;;;;;;9.00;100.00;98659.47;4968146;28;20054;-77
2023/11/06 05:28:28;;;;;;;15.80;6.77;;;;;;;9.02;100.00;98653.94;4967214;28;20041;-77
2023/11/06 05:30:54;;;;;;;11.93;6.63;;;;;;;9.00;100.00;98667.47;4950756;28;20297;-77
2023/11/06 05:33:19;;;;;;;15.30;7.25;;;;;;;8.94;100.00;98678.09;4969393;28;20144;-78
2023/11/06 05:35:45;;;;;;;14.03;6.40;;;;;;;8.90;100.00;98685.66;4969920;28;20039;-78
2023/11/06 05:38:10;;;;;;;12.68;6.30;;;;;;;8.85;100.00;98674.81;4970576;28;20740;-78
2023/11/06 05:40:36;;;;;;;24.95;8.32;;;;;;;8.95;100.00;98690.38;4952786;28;20047;-80
2023/11/06 05:43:01;;;;;;;12.13;6.37;;;;;;;8.97;100.00;98694.47;4971493;28;20034;-79
2023/11/06 05:45:26;;;;;;;18.73;7.53;;;;;;;8.84;100.00;98689.94;4970123;28;20050;-80
2023/11/06 05:47:52;;;;;;;14.57;6.30;;;;;;;8.90;100.00;98696.31;4954931;28;20050;-81
2023/11/06 05:50:17;;;;;;;15.60;6.83;;;;;;;8.87;100.00;98691.38;4970388;28;20058;-80
2023/11/06 05:52:43;;;;;;;13.10;6.63;;;;;;;8.94;100.00;98699.38;4952493;28;20042;-79
2023/11/06 05:55:08;;;;;;;11.00;6.27;;;;;;;8.85;100.00;98699.56;4949843;28;20035;-79
2023/11/06 05:57:34;;;;;;;16.05;6.00;;;;;;;8.80;100.00;98699.38;4971795;28;20062;-78
2023/11/06 06:00:00;;;;;;;13.10;5.93;;;;;;;8.71;100.00;98689.94;4970863;28;20277;-78
2023/11/06 06:02:25;;;;;;;12.57;6.80;;;;;;;8.73;100.00;98703.81;4970745;28;20031;-78
2023/11/06 06:04:50;;;;;;;11.27;5.30;;;;;;;8.70;100.00;98704.22;4988868;28;20484;-80
2023/11/06 06:07:16;;;;;;;9.73;5.73;;;;;;;8.71;100.00;98700.56;4972452;28;20039;-78
2023/11/06 06:09:42;;;;;;;12.07;5.80;;;;;;;8.79;100.00;98702.22;4973342;28;20108;-79
2023/11/06 06:12:08;;;;;;;17.08;5.68;;;;;;;8.74;100.00;98688.69;4988780;28;20042;-82
2023/11/06 06:14:33;;;;;;;15.00;6.53;;;;;;;8.70;100.00;98688.28;4986166;28;20541;-79
2023/11/06 06:16:58;;;;;;;11.67;5.43;;;;;;;8.63;100.00;98688.25;4973664;28;20035;-80
2023/11/06 06:19:24;;;;;;;10.70;6.37;;;;;;;8.56;100.00;98694.56;4975761;28;20035;-80
2023/11/06 06:21:49;;;;;;;23.50;5.63;;;;;;;8.61;100.00;98708.09;4958870;28;20049;-78
2023/11/06 06:24:16;;;;;;;13.50;5.57;;;;;;;8.73;100.00;98717.13;4973177;28;20041;-79
2023/11/06 06:26:42;;;;;;;11.10;5.03;;;;;;;8.70;100.00;98719.38;4972408;28;20278;-83
2023/11/06 06:29:07;;;;;;;11.48;5.10;;;;;;;8.68;100.00;98711.59;4970816;28;20130;-81
2023/11/06 06:31:33;;;;;;;10.93;4.83;;;;;;;8.81;100.00;98727.59;4955870;28;20072;-79
2023/11/06 06:33:59;;;;;;;10.45;5.45;;;;;;;8.73;100.00;98714.47;4971957;28;20031;-79
2023/11/06 06:36:25;;;;;;;10.60;4.70;;;;;;;8.70;100.00;98725.50;4956221;28;20057;-80
2023/11/06 06:38:51;;;;;;;11.07;5.30;;;;;;;8.68;100.00;98732.88;4961663;28;20034;-79
2023/11/06 06:41:16;;;;;;;11.55;5.55;;;;;;;8.75;100.00;98727.56;5015642;23;20579;-75
2023/11/06 06:43:42;;;;;;;11.37;6.23;;;;;;;8.52;100.00;98715.44;5008686;28;20035;-73
2023/11/06 06:46:08;;;;;;;13.38;5.68;;;;;;;8.67;100.00;98744.53;5020616;28;20116;-75
2023/11/06 06:48:34;;;;;;;14.15;6.03;;;;;;;8.70;100.00;98741.47;5065223;28;20404;-76
2023/11/06 06:50:59;;;;;;;10.87;5.47;;;;;;;8.64;100.00;98747.63;5003446;28;20041;-76
2023/11/06 06:53:25;;;;;;;13.03;5.63;;;;;;;8.73;100.00;98745.56;5045356;28;20030;-76
2023/11/06 06:55:50;;;;;;;15.70;6.60;;;;;;;8.85;100.00;98768.75;5044152;28;20040;-75
2023/11/06 06:58:16;;;;;;;9.07;5.35;;;;;;;8.75;100.00;98752.34;5045258;28;20386;-76
2023/11/06 07:00:43;;;;;;;15.88;6.15;;;;;;;8.81;100.00;98759.53;4962438;28;20023;-73
2023/11/06 07:03:08;;;;;;;16.38;6.32;;;;;;;8.71;100.00;98736.97;4953584;28;20125;-75
2023/11/06 07:05:34;;;;;;;9.05;6.15;;;;;;;8.87;100.00;98753.44;4941369;28;20126;-75
2023/11/06 07:08:00;;;;;;;12.65;5.10;;;;;;;8.77;100.00;98746.81;4983159;28;20597;-77
2023/11/06 07:10:26;;;;;;;13.73;5.80;;;;;;;8.76;100.00;98759.31;4971790;28;20073;-76
2023/11/06 07:12:52;;;;;;;9.80;6.40;;;;;;;8.76;100.00;98769.16;4984853;28;20681;-73
2023/11/06 07:15:17;;;;;;;13.93;6.28;;;;;;;8.93;100.00;98782.91;5021598;28;20040;-75
2023/11/06 07:17:43;;;;;;;12.05;6.50;;;;;;;8.88;100.00;98768.34;4994361;28;20039;-75
2023/11/06 07:20:10;;;;;;;10.55;5.93;;;;;;;8.82;100.00;98785.09;5006838;28;20041;-76
2023/11/06 07:22:36;;;;;;;13.50;6.80;;;;;;;8.93;100.00;98781.06;4995358;28;20090;-76
2023/11/06 07:25:01;;;;;;;14.75;7.70;;;;;;;8.93;100.00;98777.59;5022368;28;20021;-77
2023/11/06 07:27:27;;;;;;;16.58;6.70;;;;;;;9.00;100.00;98778.44;4980665;28;20037;-75
2023/11/06 07:29:52;;;;;;;12.73;6.90;;;;;;;9.11;100.00;98785.84;4987622;28;20058;-75
2023/11/06 07:32:17;;;;;;;13.00;6.60;;;;;;;8.99;100.00;98772.28;4977658;28;20029;-76
2023/11/06 07:34:43;;;;;;;9.47;6.17;;;;;;;9.23;100.00;98794.06;5018699;28;20884;-76
2023/11/06 07:37:10;;;;;;;11.30;6.20;;;;;;;9.22;100.00;98785.22;5049814;28;20037;-76
2023/11/06 07:39:36;;;;;;;12.65;6.32;;;;;;;9.16;100.00;98783.38;5065262;28;20127;-76
2023/11/06 07:42:01;;;;;;;9.38;6.40;;;;;;;9.00;100.00;98773.91;5007314;28;20025;-76
2023/11/06 07:44:27;;;;;;;13.43;7.07;;;;;;;9.28;100.00;98808.41;4997023;28;20046;-73
2023/11/06 07:46:52;;;;;;;10.57;6.22;;;;;;;9.14;100.00;98800.59;4982840;28;20436;-74
2023/11/06 07:49:18;;;;;;;10.17;6.07;;;;;;;9.28;100.00;98819.06;5049393;28;20112;-76
2023/11/06 07:51:43;;;;;;;15.50;7.75;;;;;;;9.24;100.00;98812.47;4973132;28;20070;-76
2023/11/06 07:54:08;;;;;;;15.70;6.83;;;;;;;9.35;100.00;98807.59;4971577;28;20112;-78
2023/11/06 07:56:37;;;;;;;13.03;7.37;;;;;;;9.41;100.00;98823.59;4984782;28;20028;-76
2023/11/06 07:59:03;;;;;;;12.18;6.68;;;;;;;9.44;100.00;98814.38;4964571;28;20040;-78
2023/11/06 08:01:28;;;;;;;12.20;6.97;;;;;;;9.31;100.00;98801.84;4990554;28;20096;-77
2023/11/06 08:03:54;;;;;;;8.70;5.78;;;;;;;9.37;100.00;98810.88;4973464;28;20082;-77
2023/11/06 08:06:19;;;;;;;10.00;5.80;;;;;;;9.30;100.00;98800.22;5052531;28;20100;-77
2023/11/06 08:08:45;;;;;;;11.73;6.03;;;;;;;9.25;100.00;98808.81;4967952;28;20039;-76
2023/11/06 08:11:11;;;;;;;11.43;5.60;;;;;;;9.27;100.00;98817.41;5019544;28;20463;-77
2023/11/06 08:13:36;;;;;;;10.70;5.78;;;;;;;9.36;100.00;98817.22;5006456;28;20037;-77
2023/11/06 08:16:04;;;;;;;11.13;5.75;;;;;;;9.52;100.00;98822.97;4951307;28;20041;-75
2023/11/06 08:18:30;;;;;;;10.38;6.03;;;;;;;9.69;100.00;98825.25;5041352;28;20041;-77
2023/11/06 08:20:55;;;;;;;8.65;5.55;;;;;;;9.80;100.00;98813.19;5037267;28;20021;-76
2023/11/06 08:23:21;;;;;;;8.53;5.10;;;;;;;10.32;100.00;98811.53;4991065;28;20726;-76
2023/11/06 08:25:46;;;;;;;6.53;4.27;;;;;;;10.31;100.00;98759.22;5049940;28;20099;-77
2023/11/06 08:28:12;;;;;;;16.25;5.50;;;;;;;10.50;100.00;98731.66;5011996;28;20044;-75
2023/11/06 08:30:37;;;;;;;11.53;5.20;;;;;;;10.17;100.00;98681.06;5018782;28;20118;-74
2023/11/06 08:33:03;;;;;;;7.68;5.25;;;;;;;10.83;100.00;98716.53;5004343;28;20104;-77
2023/11/06 08:35:28;;;;;;;9.07;4.30;;;;;;;11.76;100.00;98623.13;5036629;28;20044;-76
2023/11/06 08:37:53;;;;;;;6.93;4.40;;;;;;;10.91;100.00;98516.03;5046779;28;20037;-76
2023/11/06 08:40:19;;;;;;;9.87;5.43;;;;;;;10.75;100.00;98544.94;5033526;28;20458;-77
2023/11/06 08:42:45;;;;;;;13.82;4.93;;;;;;;10.30;100.00;98571.72;5049755;28;20576;-77
2023/11/06 08:45:11;;;;;;;10.65;5.30;;;;;;;10.68;100.00;98664.25;5047871;28;20025;-76
2023/11/06 08:47:36;;;;;;;11.98;5.00;;;;;;;10.69;100.00;98601.03;5048400;28;20507;-76
2023/11/06 08:50:01;;;;;;;8.77;4.73;;;;;;;10.54;100.00;98596.00;5016505;28;20459;-76
2023/11/06 08:52:27;;;;;;;9.88;5.70;;;;;;;10.68;100.00;98592.22;5048359;28;20041;-76
2023/11/06 08:54:52;;;;;;;10.40;4.83;;;;;;;10.67;100.00;98552.38;5009980;28;20065;-76
2023/11/06 08:57:17;;;;;;;6.87;4.27;;;;;;;10.93;100.00;98581.56;5028229;28;20044;-77
2023/11/06 08:59:43;;;;;;;9.57;5.37;;;;;;;11.45;100.00;98543.06;4950871;28;20043;-77
2023/11/06 09:02:09;;;;;;;10.77;4.53;;;;;;;11.15;100.00;98490.38;5016765;28;20033;-77
2023/11/06 09:04:35;;;;;;;8.80;5.65;;;;;;;10.67;100.00;98555.06;5022476;28;20448;-75
2023/11/06 09:07:04;;;;;;;8.88;4.97;;;;;;;10.49;100.00;98591.31;4997940;28;20075;-77
2023/11/06 09:09:29;;;;;;;8.43;5.22;;;;;;;10.73;100.00;98659.09;4985013;28;20035;-76
2023/11/06 09:11:55;;;;;;;9.30;4.63;;;;;;;11.01;100.00;98609.03;5040283;28;20099;-75
2023/11/06 09:14:20;;;;;;;8.83;4.47;;;;;;;10.76;100.00;98559.91;5031334;28;20524;-77
2023/11/06 09:16:46;;;;;;;9.75;5.22;;;;;;;10.69;100.00;98601.03;5046471;28;20109;-76
2023/11/06 09:19:11;;;;;;;8.90;5.10;;;;;;;10.70;100.00;98650.69;5063686;28;20029;-76
2023/11/06 09:21:37;;;;;;;10.30;4.87;;;;;;;10.50;100.00;98590.25;5047695;28;20287;-75
2023/11/06 09:24:04;;;;;;;6.50;4.50;;;;;;;10.66;100.00;98662.84;5031452;28;20091;-77
2023/11/06 09:26:30;;;;;;;8.70;5.53;;;;;;;10.45;100.00;98647.97;5022519;28;20044;-77
2023/11/06 09:28:56;;;;;;;14.40;6.50;;;;;;;10.64;100.00;98679.06;5028384;28;20120;-76
2023/11/06 09:31:22;;;;;;;9.82;5.25;;;;;;;10.72;100.00;98699.31;4999680;28;20028;-73
2023/11/06 09:33:48;;;;;;;10.37;4.60;;;;;;;10.70;100.00;98693.38;5029099;28;20116;-77
2023/11/06 09:36:13;;;;;;;7.80;4.65;;;;;;;10.61;100.00;98694.69;4952742;28;20091;-77
2023/11/06 09:38:38;;;;;;;9.37;4.93;;;;;;;10.35;100.00;98702.59;4962313;28;20134;-77
2023/11/06 09:41:04;;;;;;;11.37;4.33;;;;;;;10.45;100.00;98763.50;4974632;28;20020;-77
2023/11/06 09:43:30;;;;;;;6.35;3.97;;;;;;;10.77;100.00;98774.28;4963282;28;20392;-77
2023/11/06 09:45:56;;;;;;;13.25;5.55;;;;;;;10.55;100.00;98721.16;4992100;28;20505;-77
2023/11/06 09:48:31;;;;;;;9.43;4.85;;;;;;;10.72;100.00;98782.06;4972392;28;20130;-75
2023/11/06 09:50:56;;;;;;;9.00;4.63;;;;;;;10.74;100.00;98769.34;4975374;28;20027;-77
2023/11/06 09:53:23;;;;;;;7.45;3.85;;;;;;;10.94;100.00;98762.06;5049360;28;20021;-75
2023/11/06 09:55:52;;;;;;;11.98;4.65;;;;;;;10.89;100.00;98755.72;5007221;28;20041;-75
2023/11/06 09:58:18;;;;;;;8.93;4.68;;;;;;;11.19;100.00;98778.16;4963921;28;20027;-75
2023/11/06 10:00:46;;;;;;;9.70;4.50;;;;;;;10.69;100.00;98713.09;4956953;28;20432;-75
2023/11/06 10:03:11;;;;;;;9.73;4.97;;;;;;;10.59;100.00;98724.25;4971553;28;20850;-75
2023/11/06 10:05:36;;;;;;;11.37;4.13;;;;;;;10.69;100.00;98772.63;4950669;28;20092;-75
2023/11/06 10:08:04;;;;;;;5.73;3.87;;;;;;;10.87;100.00;98790.66;5013529;28;20073;-76
2023/11/06 10:10:30;;;;;;;9.75;4.30;;;;;;;11.78;100.00;98861.66;5019838;28;20132;-77
2023/11/06 10:13:10;;;;;;;7.43;3.87;;;;;;;11.57;100.00;98712.34;4988936;28;20055;-77
2023/11/06 10:15:37;;;;;;;6.53;4.47;;;;;;;12.42;100.00;98664.34;4978993;28;20496;-77
2023/11/06 10:18:23;;;;;;;7.80;3.72;;;;;;;12.84;100.00;98478.84;4969928;28;20450;-77
2023/11/06 10:20:54;;;;;;;7.90;2.97;;;;;;;12.75;100.00;98445.41;4950208;28;20035;-78
2023/11/06 10:23:24;;;;;;;5.45;2.85;;;;;;;13.01;100.00;98331.63;4951392;28;20046;-77
2023/11/06 10:25:51;;;;;;;6.88;2.75;;;;;;;13.24;100.00;98280.66;4944641;28;20031;-76
2023/11/06 10:28:18;;;;;;;7.15;2.88;;;;;;;13.01;100.00;98029.78;4960615;28;20489;-75
2023/11/06 10:30:54;;;;;;;4.97;2.60;;;;;;;11.92;100.00;98016.69;4945685;28;20061;-74
2023/11/06 10:33:21;;;;;;;4.07;2.80;;;;;;;11.41;100.00;98208.75;4938287;28;20123;-74
2023/11/06 10:35:47;;;;;;;5.55;2.47;;;;;;;11.36;100.00;98392.94;4957511;28;20254;-73
2023/11/06 10:38:29;;;;;;;5.35;2.70;;;;;;;11.19;100.00;98486.19;4943381;28;20023;-75
2023/11/06 10:40:58;;;;;;;7.63;2.83;;;;;;;10.94;100.00;98537.78;4945579;28;20031;-78
2023/11/06 10:43:24;;;;;;;6.60;3.00;;;;;;;10.92;100.00;98643.16;4943591;28;20027;-77
2023/11/06 10:45:50;;;;;;;10.45;3.58;;;;;;;10.80;100.00;98711.63;4944680;28;20510;-75
2023/11/06 10:48:30;;;;;;;6.57;3.13;;;;;;;10.85;100.00;98781.22;4948243;28;20062;-77
2023/11/06 10:50:56;;;;;;;8.20;4.22;;;;;;;10.66;100.00;98814.97;4956545;28;20719;-75
2023/11/06 10:53:24;;;;;;;7.30;3.97;;;;;;;10.56;100.00;98852.75;4942811;28;20058;-74
2023/11/06 10:55:51;;;;;;;6.93;4.60;;;;;;;10.78;100.00;98920.03;4938736;28;20035;-77
2023/11/06 10:58:21;;;;;;;7.35;4.47;;;;;;;11.08;100.00;98965.78;4947396;28;20039;-76
2023/11/06 11:00:47;;;;;;;11.48;5.70;;;;;;;11.89;100.00;98990.38;4964053;28;20075;-75
2023/11/06 11:03:14;;;;;;;8.55;4.75;;;;;;;12.18;100.00;98920.22;4956726;28;20058;-77
2023/11/06 11:05:41;;;;;;;7.57;4.72;;;;;;;12.01;100.00;98812.13;4996714;28;20036;-76
2023/11/06 11:08:07;;;;;;;4.65;3.75;;;;;;;11.92;100.00;98776.03;4949963;28;20046;-76
2023/11/06 11:10:32;;;;;;;15.98;5.38;;;;;;;11.41;100.00;98751.91;4947924;28;20043;-78
2023/11/06 11:13:00;;;;;;;9.00;5.78;;;;;;;11.19;100.00;98788.84;4989398;28;20175;-75
2023/11/06 11:15:34;;;;;;;11.70;5.65;;;;;;;10.97;100.00;98857.75;4952569;28;20088;-75
2023/11/06 11:18:13;;;;;;;12.48;5.28;;;;;;;11.06;100.00;98926.97;4942941;28;20035;-78
2023/11/06 11:20:59;;;;;;;16.38;5.78;;;;;;;11.01;100.00;98945.47;4949310;28;20043;-77
2023/11/06 11:23:34;;;;;;;13.32;5.18;;;;;;;11.04;100.00;98956.53;4955313;28;20063;-77